Delray Beach, FL

6:05 AM EDT on May 25, 2015 (GMT -0400)
Fort Lauderdale Executive | | Change Station
CLOSE
Current Station
Airport
Location: Fort Lauderdale,
Elevation: 13 ft
Nearby Weather Stations

Elev 13 ft 26.20 °N, 80.18 °W | Updated 12 minutes ago

Clear
Clear
79 °F
Feels Like 79 °F
N
13
Wind Variable Wind from East

Today
High -- | Low -- °F
--% Chance of Precip.
Yesterday
High -- | Low -- °F
Precip. -- in
6:29 AM 8:05 PM
Waxing Crescent, 47% visible
Pressure 30.13 in
Visibility 10.0 miles
Clouds Few 2200 ft
Dew Point 73 °F
Humidity 82%
Rainfall 0.00 in
Snow Depth Not available.
UV 0 out of 12
Pollen 5.20 out of 12
Air Quality Not available.
Flu Activity Sporadic
METAR KFXE 250953Z AUTO 09011KT 10SM FEW022 26/23 A3012 RMK AO2 SLP203 T02610228 TSNO

More Conditions Fewer Conditions

Pressure 30.13 in
Visibility 10.0 miles
Clouds Few 2200 ft
Dew Point 73 °F
Humidity 82%
Rainfall 0.00 in
Snow Depth Not available.
UV 0 out of 12
Pollen 5.20 out of 12
Air Quality Not available.
Flu Activity Sporadic
METAR KFXE 250953Z AUTO 09011KT 10SM FEW022 26/23 A3012 RMK AO2 SLP203 T02610228 TSNO

More Conditions Fewer Conditions

Nowcast | as of 5:46 am EDT on May 25, 2015

Isolated showers will continue to develop over the Atlantic waters early this morning and move to the west quickly. A few of the showers could even move into the East Coast Metro areas of South Florida before dissipating. Rainfall amounts will be light with the passing showers. Mariners can also expect higher seas in and near the showers.

×

10-Day Weather Forecast

Almanac

Astronomy

May. 25, 2015 Rise Set
Actual Time
Civil Twilight
Nautical Twilight
Astronomical Twilight
Moon
Length of Visible Light
Length of Day
Tomorrow will be .
, % of the Moon is Illuminated

Today's Extremes

State Highs State Lows

Community

WunderPhotos

Upload Photos

1,823,970 photos uploaded!

WunderBlogs® & News

Nearby

Air Quality

  Air Quality AQ Index Pollutant
Not available.

Snow Depth

Station Depth Elevation

Earthquake Activity

City Distance Mag. Time & Date
Minimum magnitude displayed is 2.5.

Coastal Water Temperatures

Place Temperature

Stations

Nearby Weather Stations

Station Location Temp. Windchill Dew Point Humidity Wind Precip. Elev Updated Type